Time;durP1;ratioP1;P1;durP2;ratioP2;P2;SDS_P1;SDS_P2;PMS_P1;PMS_P2;Temp;Humidity;BMP_temperature;BMP_pressure;BME280_temperature;BME280_humidity;BME280_pressure;Samples;Min_cycle;Max_cycle;Signal;HPM_P1;HPM_P2
2020/12/25 13:44:45;;;;;;;29.15;9.80;;;;;;;1.85;100.00;100462.89;1774514;79;22796;-89
2020/12/25 13:47:11;;;;;;;33.78;9.23;;;;;;;1.86;100.00;100463.21;1748234;82;21183;-88
2020/12/25 13:49:37;;;;;;;41.35;12.73;;;;;;;1.94;100.00;100462.98;1747926;81;21269;-86
2020/12/25 13:52:15;;;;;;;32.20;9.33;;;;;;;2.14;100.00;100465.09;1747226;82;20911;-89
2020/12/25 13:54:43;;;;;;;24.60;8.13;;;;;;;2.17;100.00;100449.25;1743285;82;21121;-89
2020/12/25 13:57:14;;;;;;;25.00;7.65;;;;;;;2.48;100.00;100465.33;1748588;82;21475;-88
2020/12/25 13:59:42;;;;;;;25.08;9.05;;;;;;;2.62;100.00;100462.11;1695649;83;21672;-89
2020/12/25 14:02:19;;;;;;;24.10;8.18;;;;;;;2.57;100.00;100465.09;1657399;86;21232;-88
2020/12/25 14:05:14;;;;;;;;;;;;;;;;;;;;;
2020/12/25 14:07:33;;;;;;;12.80;4.90;;;;;;;2.83;100.00;100467.65;1559231;90;21330;-87
2020/12/25 14:10:13;;;;;;;14.47;5.70;;;;;;;3.03;100.00;100465.38;1539511;92;21211;-88
2020/12/25 14:12:46;;;;;;;15.83;6.22;;;;;;;3.01;100.00;100466.95;1508254;93;21280;-88
2020/12/25 14:15:16;;;;;;;14.13;5.58;;;;;;;3.01;100.00;100461.63;1456530;97;21213;-88
2020/12/25 14:17:57;;;;;;;;;;;;;;;;;;;;;
2020/12/25 14:30:12;;;;;;;;;;;;;;;;;;;;;
2020/12/25 14:50:28;;;;;;;;;;;;;;;;;;;;;
2020/12/25 14:53:32;;;;;;;;;;;;;;;;;;;;;
2020/12/25 15:04:18;;;;;;;23.40;8.95;;;;;;;3.46;100.00;100464.72;1362636;100;21771;-86
2020/12/25 15:14:25;;;;;;;22.48;8.80;;;;;;;3.51;100.00;100474.22;1255612;113;21882;-86
2020/12/25 15:16:55;;;;;;;19.70;7.92;;;;;;;3.61;100.00;100482.53;1254028;112;21302;-86
2020/12/25 15:19:28;;;;;;;19.12;7.15;;;;;;;3.60;100.00;100478.25;1266596;112;21311;-85
2020/12/25 15:21:54;;;;;;;22.40;7.50;;;;;;;3.59;100.00;100485.95;1248096;113;21433;-86
2020/12/25 15:24:20;;;;;;;23.52;8.05;;;;;;;3.60;100.00;100488.37;1257676;111;21177;-88
2020/12/25 15:26:48;;;;;;;32.55;8.70;;;;;;;3.73;100.00;100482.13;1262920;112;21315;-87
2020/12/25 15:29:15;;;;;;;19.92;8.30;;;;;;;3.67;100.00;100484.84;1272329;112;21291;-87
2020/12/25 15:31:41;;;;;;;23.05;8.98;;;;;;;3.82;100.00;100492.84;1290845;107;21325;-87
2020/12/25 15:34:07;;;;;;;21.42;9.03;;;;;;;3.72;100.00;100491.69;1333420;106;21264;-87
2020/12/25 15:36:33;;;;;;;25.85;10.08;;;;;;;3.77;100.00;100486.53;1318394;107;21193;-87
2020/12/25 15:38:59;;;;;;;27.22;9.63;;;;;;;3.78;100.00;100488.95;1352928;103;21128;-91
2020/12/25 15:41:26;;;;;;;23.25;9.43;;;;;;;3.84;100.00;100488.09;1390192;102;21138;-88
2020/12/25 15:43:52;;;;;;;29.05;10.60;;;;;;;3.87;100.00;100492.17;1420766;96;21323;-88
2020/12/25 15:46:19;;;;;;;29.32;10.80;;;;;;;3.93;100.00;100489.16;1464363;95;21294;-87
2020/12/25 15:48:46;;;;;;;26.77;10.88;;;;;;;3.99;100.00;100489.61;1459159;96;21274;-88
2020/12/25 15:51:15;;;;;;;27.60;10.23;;;;;;;4.05;100.00;100483.39;1472382;95;21243;-88
2020/12/25 15:53:42;;;;;;;33.70;12.35;;;;;;;4.19;100.00;100477.42;1476701;95;21239;-88
2020/12/25 15:56:08;;;;;;;33.40;11.68;;;;;;;4.25;100.00;100484.55;1466049;95;21597;-87
2020/12/25 15:58:34;;;;;;;37.03;12.35;;;;;;;4.25;100.00;100476.02;1460443;96;21268;-88
2020/12/25 16:01:01;;;;;;;30.35;11.33;;;;;;;4.24;100.00;100475.73;1464121;95;21364;-88
2020/12/25 16:03:29;;;;;;;28.57;10.40;;;;;;;4.29;100.00;100472.38;1464652;96;21722;-87
2020/12/25 16:05:54;;;;;;;35.48;11.35;;;;;;;4.34;100.00;100465.88;1468621;93;21128;-87
2020/12/25 16:08:21;;;;;;;45.50;15.40;;;;;;;4.32;100.00;100462.60;1508404;94;21050;-88
2020/12/25 16:10:47;;;;;;;34.35;12.60;;;;;;;4.20;100.00;100467.86;1508798;93;21199;-87
2020/12/25 16:13:13;;;;;;;29.80;11.80;;;;;;;4.17;100.00;100475.48;1579659;88;21212;-87
2020/12/25 16:15:39;;;;;;;29.48;12.23;;;;;;;4.15;100.00;100481.55;1588157;90;21172;-87
2020/12/25 16:18:07;;;;;;;63.28;21.52;;;;;;;4.15;100.00;100489.06;1589920;88;20978;-86
2020/12/25 16:23:01;;;;;;;34.67;13.38;;;;;;;4.23;100.00;100485.27;1521697;92;21779;-86
2020/12/25 16:25:27;;;;;;;47.80;14.87;;;;;;;4.30;100.00;100490.04;1509820;95;21717;-86
2020/12/25 16:27:55;;;;;;;33.25;12.10;;;;;;;4.24;100.00;100490.40;1509917;93;21255;-86
2020/12/25 16:30:22;;;;;;;38.50;14.58;;;;;;;4.33;100.00;100491.73;1510000;95;21156;-85
2020/12/25 16:32:47;;;;;;;34.15;13.18;;;;;;;4.29;100.00;100490.56;1490407;95;21220;-85
2020/12/25 16:35:14;;;;;;;37.40;13.18;;;;;;;4.33;100.00;100490.93;1510005;95;21275;-85
2020/12/25 16:37:41;;;;;;;42.27;15.65;;;;;;;4.33;100.00;100483.73;1509942;95;21260;-85
2020/12/25 16:40:07;;;;;;;48.15;16.85;;;;;;;4.51;100.00;100472.25;1517756;94;21219;-85
2020/12/25 16:42:33;;;;;;;53.50;18.12;;;;;;;4.33;100.00;100456.25;1517884;93;21783;-85
2020/12/25 16:45:02;;;;;;;58.20;18.67;;;;;;;4.43;100.00;100484.55;1517751;94;21098;-85
2020/12/25 16:47:28;;;;;;;55.17;18.98;;;;;;;4.46;100.00;100481.44;1520564;93;21287;-85
2020/12/25 16:49:54;;;;;;;77.85;23.15;;;;;;;4.39;100.00;100477.23;1525990;93;21207;-85
2020/12/25 16:52:20;;;;;;;55.08;20.57;;;;;;;4.39;100.00;100481.23;1532198;93;21633;-85
2020/12/25 16:54:46;;;;;;;55.30;19.62;;;;;;;4.40;100.00;100483.66;1532016;92;21223;-85
2020/12/25 16:57:13;;;;;;;59.00;21.27;;;;;;;4.44;100.00;100476.02;1532126;93;21867;-85
2020/12/25 16:59:39;;;;;;;55.48;20.10;;;;;;;4.43;100.00;100472.55;1532200;93;21269;-85
2020/12/25 17:02:06;;;;;;;84.20;27.40;;;;;;;4.43;100.00;100474.41;1543880;90;21609;-85
2020/12/25 17:04:34;;;;;;;65.22;22.55;;;;;;;4.45;100.00;100476.34;1605784;88;21212;-85
2020/12/25 17:07:10;;;;;;;61.42;21.07;;;;;;;4.46;100.00;100484.10;1607096;89;21165;-84
2020/12/25 17:09:47;;;;;;;59.10;19.30;;;;;;;4.51;100.00;100479.45;1555394;91;21342;-85
2020/12/25 17:12:23;;;;;;;56.95;17.85;;;;;;;4.52;100.00;100472.54;1561253;91;21164;-85
2020/12/25 17:14:48;;;;;;;47.50;16.93;;;;;;;4.51;100.00;100477.59;1512351;94;21351;-86
2020/12/25 17:17:17;;;;;;;42.93;15.90;;;;;;;4.53;100.00;100480.86;1507550;94;21034;-86
2020/12/25 17:19:43;;;;;;;42.83;15.23;;;;;;;4.56;100.00;100482.27;1494671;95;21299;-85
2020/12/25 17:22:09;;;;;;;50.05;15.38;;;;;;;4.58;100.00;100480.17;1499978;94;21253;-85
2020/12/25 17:24:35;;;;;;;43.17;14.90;;;;;;;4.60;100.00;100476.77;1500173;94;21180;-85
2020/12/25 17:27:02;;;;;;;39.08;15.05;;;;;;;4.61;100.00;100478.39;1480707;94;21204;-85
2020/12/25 17:29:29;;;;;;;48.98;17.02;;;;;;;4.63;100.00;100474.18;1473883;95;21308;-85
2020/12/25 17:31:58;;;;;;;46.40;15.15;;;;;;;4.66;100.00;100477.73;1456473;96;21170;-85
2020/12/25 17:34:28;;;;;;;44.60;15.40;;;;;;;4.66;100.00;100475.07;1473776;96;21241;-85
2020/12/25 17:39:29;;;;;;;64.15;17.70;;;;;;;4.70;100.00;100476.24;1412626;101;21254;-84
2020/12/25 17:41:55;;;;;;;51.65;15.85;;;;;;;4.68;100.00;100474.34;1375103;102;21237;-85
2020/12/25 17:44:31;;;;;;;;;;;;;;;;;;;;;
2020/12/25 17:46:49;;;;;;;103.07;20.70;;;;;;;4.70;100.00;100473.57;1405530;102;21294;-85
2020/12/25 17:49:17;;;;;;;138.80;36.98;;;;;;;4.71;100.00;100473.36;1405831;102;21969;-85
2020/12/25 17:51:45;;;;;;;148.32;29.27;;;;;;;4.71;100.00;100474.70;1366711;104;21274;-85
2020/12/25 17:54:17;;;;;;;187.18;37.38;;;;;;;4.69;100.00;100468.76;1353217;104;21324;-85
2020/12/25 17:56:43;;;;;;;170.75;31.85;;;;;;;4.72;100.00;100464.83;1353135;104;21390;-85
2020/12/25 17:59:11;;;;;;;142.85;38.60;;;;;;;4.72;100.00;100465.64;1353245;104;21785;-85
2020/12/25 18:01:37;;;;;;;156.47;45.08;;;;;;;4.73;100.00;100465.11;1318837;107;21714;-84
2020/12/25 18:04:03;;;;;;;140.20;38.13;;;;;;;4.76;100.00;100463.33;1305626;107;21828;-84
2020/12/25 18:06:29;;;;;;;137.90;32.17;;;;;;;4.77;100.00;100472.47;1275848;110;21335;-84
2020/12/25 18:11:23;;;;;;;69.55;19.25;;;;;;;4.76;100.00;100478.02;1293695;110;22026;-84
2020/12/25 18:13:52;;;;;;;79.47;16.80;;;;;;;4.78;100.00;100471.94;1294870;109;21520;-84
2020/12/25 18:16:18;;;;;;;105.03;19.35;;;;;;;4.79;100.00;100466.88;1295083;110;21367;-85
2020/12/25 18:18:45;;;;;;;189.90;19.57;;;;;;;4.78;100.00;100468.74;1283008;110;21409;-84
2020/12/25 18:21:12;;;;;;;132.65;19.67;;;;;;;4.80;100.00;100469.06;1276314;111;21342;-84
2020/12/25 18:23:49;;;;;;;58.65;17.55;;;;;;;4.78;100.00;100468.74;1271956;112;21366;-85
2020/12/25 18:26:23;;;;;;;71.00;16.20;;;;;;;4.76;100.00;100479.34;1266270;112;21327;-85
2020/12/25 18:28:53;;;;;;;71.00;15.95;;;;;;;4.74;100.00;100482.78;1278133;112;21375;-85
2020/12/25 18:31:29;;;;;;;75.37;17.52;;;;;;;4.73;100.00;100485.14;1252431;113;21785;-85
2020/12/25 18:33:57;;;;;;;126.07;18.87;;;;;;;4.74;100.00;100484.92;1261397;111;21253;-85
2020/12/25 18:36:32;;;;;;;85.07;15.83;;;;;;;4.73;100.00;100485.14;1286465;107;21318;-84
2020/12/25 18:39:03;;;;;;;147.20;24.25;;;;;;;4.72;100.00;100478.17;1302615;107;21330;-85
2020/12/25 18:44:29;;;;;;;;;;;;;;;;;;;;;
2020/12/25 18:52:28;;;;;;;65.03;17.98;;;;;;;4.70;100.00;100472.23;1234382;113;21401;-85
2020/12/25 18:55:08;;;;;;;47.10;15.60;;;;;;;4.62;100.00;100470.70;1231460;115;21363;-85
2020/12/25 18:57:40;;;;;;;95.42;20.68;;;;;;;4.63;100.00;100472.33;1203893;117;21366;-85
2020/12/25 19:15:49;;;;;;;80.03;19.15;;;;;;;4.54;100.00;100461.13;1307680;108;21357;-85
2020/12/25 19:18:28;;;;;;;108.47;21.12;;;;;;;4.54;100.00;100456.32;1293243;109;21675;-84
2020/12/25 19:20:59;;;;;;;112.15;22.13;;;;;;;4.50;100.00;100447.95;1293840;109;21384;-85
2020/12/25 19:23:30;;;;;;;143.47;20.15;;;;;;;4.58;100.00;100456.16;1262332;110;21243;-85
2020/12/25 19:26:01;;;;;;;158.07;19.95;;;;;;;4.60;100.00;100454.09;1259783;112;21346;-85
2020/12/25 19:28:32;;;;;;;106.70;17.73;;;;;;;4.62;100.00;100453.36;1239787;114;21330;-85
2020/12/25 19:31:01;;;;;;;119.65;17.17;;;;;;;4.65;100.00;100452.09;1292886;111;21340;-86
2020/12/25 19:35:58;;;;;;;120.33;24.25;;;;;;;4.69;100.00;100447.41;1280205;112;21917;-85
2020/12/25 19:38:27;;;;;;;126.05;24.75;;;;;;;4.74;100.00;100450.22;1268356;112;22055;-86
2020/12/25 19:40:57;;;;;;;105.43;23.30;;;;;;;4.77;100.00;100445.77;1255366;113;21251;-86
2020/12/25 19:43:43;;;;;;;;;;;;;;;;;;;;;
2020/12/25 19:46:10;;;;;;;78.95;20.75;;;;;;;4.78;100.00;100451.39;1262776;111;21392;-86
2020/12/25 19:48:41;;;;;;;124.40;25.17;;;;;;;4.80;100.00;100447.18;1259906;112;21350;-84
2020/12/25 19:51:11;;;;;;;107.20;21.62;;;;;;;4.78;100.00;100450.06;1259998;112;21426;-84
2020/12/25 19:53:42;;;;;;;126.47;19.23;;;;;;;4.79;100.00;100446.86;1260131;112;21268;-84
2020/12/25 19:56:09;;;;;;;124.80;20.77;;;;;;;4.81;100.00;100446.13;1260213;112;21427;-84
2020/12/25 19:58:35;;;;;;;129.20;25.65;;;;;;;4.82;100.00;100441.07;1266568;108;21390;-84
2020/12/25 20:01:03;;;;;;;84.35;22.07;;;;;;;4.77;100.00;100448.44;1311832;109;21271;-84
2020/12/25 20:03:29;;;;;;;98.33;22.80;;;;;;;4.76;100.00;100444.16;1309657;109;21759;-84
2020/12/25 20:05:55;;;;;;;121.47;22.90;;;;;;;4.84;100.00;100452.88;1310247;107;21232;-84
2020/12/25 20:08:23;;;;;;;108.50;22.55;;;;;;;4.82;100.00;100449.08;1331324;107;21105;-84
2020/12/25 20:10:49;;;;;;;125.30;20.55;;;;;;;4.84;100.00;100440.34;1331033;107;21390;-85
2020/12/25 20:13:15;;;;;;;120.60;19.32;;;;;;;4.87;100.00;100450.56;1329053;106;21308;-85
2020/12/25 20:15:41;;;;;;;72.87;18.05;;;;;;;4.87;100.00;100454.56;1317048;108;22048;-85
2020/12/25 20:18:07;;;;;;;75.52;17.30;;;;;;;4.89;100.00;100451.16;1333977;106;21093;-85
2020/12/25 20:20:34;;;;;;;105.15;18.55;;;;;;;4.91;100.00;100450.42;1335721;107;21046;-84
2020/12/25 20:23:02;;;;;;;63.40;17.00;;;;;;;4.91;100.00;100453.59;1335814;107;21284;-85
2020/12/25 20:25:28;;;;;;;92.42;17.32;;;;;;;4.85;100.00;100450.48;1327901;107;21830;-84
2020/12/25 20:27:54;;;;;;;101.12;17.50;;;;;;;4.76;100.00;100447.31;1369155;102;21375;-84
2020/12/25 20:30:21;;;;;;;75.05;16.07;;;;;;;4.69;100.00;100447.41;1404320;102;21216;-84
2020/12/25 20:32:47;;;;;;;61.50;15.00;;;;;;;4.66;100.00;100451.05;1387599;103;21260;-84
2020/12/25 20:35:13;;;;;;;85.57;14.75;;;;;;;4.60;100.00;100459.42;1387462;103;21222;-84
2020/12/25 20:37:39;;;;;;;90.80;13.93;;;;;;;4.57;100.00;100454.54;1387668;103;21284;-84
2020/12/25 20:40:05;;;;;;;41.88;14.05;;;;;;;4.60;100.00;100461.28;1389027;102;22695;-84
2020/12/25 20:42:32;;;;;;;59.88;13.72;;;;;;;4.58;100.00;100465.50;1369120;103;21621;-84
2020/12/25 20:44:57;;;;;;;65.05;11.30;;;;;;;4.52;100.00;100452.53;1409410;96;21235;-84
2020/12/25 20:47:23;;;;;;;52.85;12.33;;;;;;;4.30;98.96;100450.84;1478525;97;21667;-84
2020/12/25 20:49:49;;;;;;;74.25;12.20;;;;;;;4.29;99.88;100456.38;1478479;97;21059;-84
2020/12/25 20:52:15;;;;;;;48.90;13.13;;;;;;;4.35;100.00;100456.83;1475464;97;21305;-84
2020/12/25 20:54:41;;;;;;;76.40;13.50;;;;;;;4.43;100.00;100451.72;1478492;97;22094;-84
2020/12/25 20:57:08;;;;;;;80.42;14.35;;;;;;;4.52;100.00;100455.72;1478518;97;21168;-84
2020/12/25 20:59:34;;;;;;;51.10;12.55;;;;;;;4.57;100.00;100455.88;1487455;92;21302;-84
2020/12/25 21:01:59;;;;;;;87.05;14.83;;;;;;;4.61;100.00;100460.23;1544102;92;21127;-84
2020/12/25 21:04:25;;;;;;;63.83;12.10;;;;;;;4.63;100.00;100463.51;1562581;91;21253;-84
2020/12/25 21:06:52;;;;;;;88.00;13.28;;;;;;;4.62;100.00;100464.03;1569349;91;21216;-84
2020/12/25 21:09:17;;;;;;;78.57;11.88;;;;;;;4.60;100.00;100467.44;1569455;91;21292;-83
2020/12/25 21:11:43;;;;;;;64.10;11.85;;;;;;;4.61;100.00;100470.39;1569518;91;20970;-84
2020/12/25 21:14:10;;;;;;;70.72;12.35;;;;;;;4.66;100.00;100474.55;1569516;91;21288;-84
2020/12/25 21:16:36;;;;;;;92.22;11.15;;;;;;;4.68;100.00;100471.14;1569377;91;21274;-84
2020/12/25 21:19:03;;;;;;;96.25;15.13;;;;;;;4.63;99.90;100471.52;1569451;91;21185;-83
2020/12/25 21:21:28;;;;;;;84.13;15.90;;;;;;;4.63;100.00;100460.31;1587007;84;21296;-84
2020/12/25 21:23:54;;;;;;;100.67;21.62;;;;;;;4.55;100.00;100456.08;1708025;84;20962;-84
2020/12/25 21:26:20;;;;;;;107.50;25.92;;;;;;;4.50;100.00;100467.97;1707989;84;21046;-84
2020/12/25 21:28:46;;;;;;;96.10;28.47;;;;;;;4.50;100.00;100467.13;1707922;83;21252;-84
2020/12/25 21:31:12;;;;;;;110.20;29.95;;;;;;;4.48;100.00;100470.03;1707906;84;21058;-84
2020/12/25 21:33:38;;;;;;;166.25;43.30;;;;;;;4.50;100.00;100459.96;1707915;84;21185;-84
2020/12/25 21:36:05;;;;;;;154.93;45.80;;;;;;;4.54;100.00;100452.32;1707884;84;21141;-84
2020/12/25 21:38:31;;;;;;;172.82;42.78;;;;;;;4.59;100.00;100455.14;1679737;84;22254;-84
2020/12/25 21:40:58;;;;;;;172.55;40.95;;;;;;;4.60;100.00;100458.09;1683588;84;21191;-84
2020/12/25 21:43:25;;;;;;;157.57;45.63;;;;;;;4.62;100.00;100455.19;1660323;85;21116;-84
2020/12/25 21:45:51;;;;;;;160.40;44.42;;;;;;;4.62;100.00;100449.84;1681594;84;21152;-84
2020/12/25 21:48:19;;;;;;;183.50;43.10;;;;;;;4.61;100.00;100448.23;1676262;85;21155;-83
2020/12/25 21:50:48;;;;;;;181.32;36.45;;;;;;;4.62;100.00;100448.52;1676106;85;21144;-84
2020/12/25 21:53:13;;;;;;;129.95;31.17;;;;;;;4.65;100.00;100452.91;1676263;85;21918;-83
2020/12/25 21:55:39;;;;;;;149.27;31.93;;;;;;;4.68;100.00;100444.98;1676272;85;20946;-83
2020/12/25 21:58:07;;;;;;;168.68;28.92;;;;;;;4.72;100.00;100448.81;1676338;85;21025;-83
2020/12/25 22:00:33;;;;;;;143.68;26.93;;;;;;;4.72;100.00;100438.95;1669483;86;21503;-83
2020/12/25 22:02:59;;;;;;;126.22;30.32;;;;;;;4.70;100.00;100438.88;1669565;86;21116;-83
2020/12/25 22:05:25;;;;;;;120.85;31.05;;;;;;;4.70;100.00;100437.02;1669433;85;22016;-83
2020/12/25 22:07:51;;;;;;;129.15;31.60;;;;;;;4.71;100.00;100431.18;1646862;85;20978;-83
2020/12/25 22:10:17;;;;;;;140.35;33.00;;;;;;;4.68;100.00;100427.63;1669569;85;21192;-83
2020/12/25 22:12:43;;;;;;;136.75;32.17;;;;;;;4.62;100.00;100424.49;1672248;85;21206;-83
2020/12/25 22:15:09;;;;;;;96.28;30.90;;;;;;;4.59;100.00;100435.62;1672584;83;21491;-83
2020/12/25 22:17:35;;;;;;;113.32;30.45;;;;;;;4.62;100.00;100435.17;1674074;85;21248;-83
2020/12/25 22:20:02;;;;;;;102.95;29.70;;;;;;;4.64;100.00;100438.44;1673243;85;21579;-83
2020/12/25 22:22:31;;;;;;;114.35;29.82;;;;;;;4.68;100.00;100443.64;1672971;85;21485;-83
2020/12/25 22:24:57;;;;;;;97.37;28.07;;;;;;;4.61;100.00;100441.55;1671972;85;21165;-83
2020/12/25 22:27:23;;;;;;;85.87;26.60;;;;;;;4.28;98.74;100448.90;1672698;85;21236;-83
2020/12/25 22:29:49;;;;;;;74.82;22.25;;;;;;;4.16;99.09;100448.01;1672927;85;22034;-83
2020/12/25 22:32:16;;;;;;;95.72;20.00;;;;;;;4.18;100.00;100449.95;1672302;85;20979;-83
2020/12/25 22:34:42;;;;;;;57.73;17.92;;;;;;;4.21;100.00;100453.50;1672557;85;21167;-84
2020/12/25 22:37:08;;;;;;;67.25;17.42;;;;;;;4.20;100.00;100449.71;1673509;85;21157;-83
2020/12/25 22:39:34;;;;;;;58.65;21.70;;;;;;;4.18;100.00;100458.47;1650362;85;21149;-83
2020/12/25 22:42:01;;;;;;;64.45;21.02;;;;;;;4.19;100.00;100457.42;1672257;85;21254;-83
2020/12/25 22:44:27;;;;;;;64.53;22.17;;;;;;;4.16;100.00;100457.34;1672800;85;21686;-83
2020/12/25 22:46:54;;;;;;;69.85;21.23;;;;;;;4.18;100.00;100465.95;1672776;85;20990;-83
2020/12/25 22:49:20;;;;;;;71.65;21.57;;;;;;;4.22;100.00;100470.31;1673975;85;21169;-83
2020/12/25 22:51:48;;;;;;;61.48;18.98;;;;;;;4.25;100.00;100459.20;1672080;85;21137;-83
2020/12/25 22:54:15;;;;;;;55.28;16.80;;;;;;;4.28;100.00;100458.77;1672619;85;21767;-84
2020/12/25 22:56:42;;;;;;;63.98;17.52;;;;;;;4.24;100.00;100462.92;1676768;84;21613;-83
2020/12/25 22:59:10;;;;;;;49.00;16.42;;;;;;;4.21;100.00;100462.84;1700498;84;21121;-83
2020/12/25 23:01:39;;;;;;;40.12;14.63;;;;;;;4.25;100.00;100464.02;1700546;84;21197;-83
2020/12/25 23:04:06;;;;;;;41.42;14.90;;;;;;;4.27;100.00;100451.28;1657883;86;21650;-82
2020/12/25 23:06:36;;;;;;;42.27;16.27;;;;;;;4.28;100.00;100459.57;1658061;85;21174;-82
2020/12/25 23:09:06;;;;;;;33.63;13.70;;;;;;;4.27;100.00;100455.28;1657901;86;21544;-82
2020/12/25 23:11:33;;;;;;;50.00;14.98;;;;;;;4.31;100.00;100453.79;1658043;86;21648;-83
2020/12/25 23:13:59;;;;;;;50.88;14.98;;;;;;;4.37;100.00;100452.09;1657476;85;21214;-82
2020/12/25 23:16:25;;;;;;;61.55;15.35;;;;;;;4.29;100.00;100451.05;1657931;86;21166;-82
2020/12/25 23:18:51;;;;;;;63.58;16.30;;;;;;;4.30;100.00;100450.03;1658017;86;21232;-82
2020/12/25 23:21:20;;;;;;;68.45;15.75;;;;;;;4.29;100.00;100452.38;1657478;86;21083;-82
2020/12/25 23:23:48;;;;;;;77.62;15.90;;;;;;;4.27;100.00;100451.28;1657542;85;21187;-83
2020/12/25 23:26:28;;;;;;;51.00;16.05;;;;;;;4.30;100.00;100458.84;1657168;85;21162;-83
2020/12/25 23:28:54;;;;;;;65.60;15.75;;;;;;;4.36;100.00;100456.33;1657814;86;21197;-83
2020/12/25 23:31:20;;;;;;;55.43;15.78;;;;;;;4.40;100.00;100452.17;1657656;86;22014;-82
2020/12/25 23:33:47;;;;;;;60.88;15.03;;;;;;;4.40;100.00;100452.17;1657431;86;21272;-83
2020/12/25 23:36:17;;;;;;;49.35;16.02;;;;;;;4.37;100.00;100448.09;1658057;86;21090;-83
2020/12/25 23:38:43;;;;;;;55.75;16.20;;;;;;;4.31;100.00;100459.66;1657607;85;21584;-82
2020/12/25 23:41:11;;;;;;;55.78;16.95;;;;;;;4.29;100.00;100465.22;1657537;86;21819;-83
2020/12/25 23:43:38;;;;;;;53.00;20.52;;;;;;;4.26;100.00;100460.83;1657975;86;21930;-83
2020/12/25 23:46:09;;;;;;;59.85;20.85;;;;;;;4.24;100.00;100472.25;1655655;85;21712;-82
2020/12/25 23:48:36;;;;;;;56.92;21.57;;;;;;;4.27;100.00;100473.14;1645561;86;21166;-82
2020/12/25 23:51:07;;;;;;;55.78;20.90;;;;;;;4.27;100.00;100473.14;1645743;85;21103;-83
2020/12/25 23:53:33;;;;;;;52.90;21.80;;;;;;;4.26;100.00;100462.16;1645476;85;21513;-82
2020/12/25 23:55:59;;;;;;;48.20;18.23;;;;;;;4.28;100.00;100473.43;1645556;86;21362;-82
2020/12/25 23:58:26;;;;;;;44.40;18.10;;;;;;;4.06;100.00;100479.71;1645512;85;21256;-82
